Terminal Aerodrome Forecast
Issued by NWS

Current Version | Previous Version | Text Only | Print | Product List | Glossary Off
Versions: 1 2 3 4 5 6 7 8 9 10 11 12 13 14 15 16 17 18 19

000
FTUS41 KILN 142343
TAFLUK
TAF
KLUK 142343Z 1500/1524 12004KT P6SM SCT250
     FM151000 14005KT P6SM BKN200
     FM151500 19010KT P6SM VCSH OVC080
     FM151800 21010G20KT 3SM -SHRA BR OVC018
     FM152100 21010G20KT 5SM -SHRA BR OVC009=

USA.gov is the U.S. government's official web portal to all federal, state and local government web resources and services.